Valley View, Ohio
Current Conditions -  °F | °C
As of 2:53 PM on Sunday 25 Jan 2015 (Local Time) from KBKL Reporting Station
Overcast Overcast  
Wind Chill:   Ceiling: 5000
Heat Index: 23°   Visibility: 10mi
Dew Point: 16°   Wind: 17mph
Humidity: 74%   Direction: 30°NNE
Pressure: 29.85"   Gusts: NA
Location:  41.3833°N, 81.6531°W
Report Text: KBKL 251953Z 03015KT 10SM BKN050 OVC060 M05/M09 A2985 RMK AO2 SLP114 T10501089
Loading
Personal Weather Stations






























Interactive Weather Map New forecast layout! Learn more

10-Day Weather Forecast

Advertisements
Track Severe Weather on mobile